createdAt,value
2023-05-19T11:08:15.662Z,29.63
2023-05-19T11:11:52.631Z,30.24
2023-05-19T11:14:54.903Z,29.67
2023-05-19T11:18:21.758Z,29.16
2023-05-19T12:09:10.125Z,28.21
2023-05-19T12:12:09.203Z,27.99
2023-05-19T12:15:23.765Z,27.25
2023-05-19T12:19:05.803Z,26.85
2023-05-19T12:59:01.936Z,24.41
2023-05-19T13:54:58.018Z,21.93
2023-05-19T14:00:37.612Z,20.75
2023-05-19T14:03:06.232Z,20.44
2023-05-19T14:06:35.621Z,21.16
2023-05-19T14:09:44.938Z,21.00
2023-05-19T14:12:14.020Z,20.89
2023-05-19T14:14:42.559Z,20.59
2023-05-19T14:17:11.421Z,20.60
2023-05-19T14:19:50.650Z,20.66
2023-05-19T14:22:20.211Z,21.28
2023-05-19T14:24:48.485Z,21.39
2023-05-19T14:27:16.985Z,21.61
2023-05-19T14:29:44.960Z,21.52
2023-05-19T14:32:14.086Z,22.08
2023-05-19T14:34:43.014Z,22.62
2023-05-19T14:37:11.306Z,22.32
2023-05-19T14:40:01.164Z,22.08
2023-05-19T14:42:30.371Z,22.36
2023-05-19T14:44:59.584Z,22.29
2023-05-19T14:47:28.065Z,22.24
2023-05-19T14:49:56.625Z,22.02
2023-05-19T14:52:26.537Z,21.81
2023-05-19T14:54:57.915Z,21.01
2023-05-19T14:57:26.040Z,20.20
2023-05-19T14:59:57.236Z,19.27
2023-05-19T15:02:29.551Z,18.69
2023-05-19T15:05:01.658Z,18.10
2023-05-19T15:07:34.209Z,17.87
2023-05-19T15:10:07.704Z,17.43
2023-05-19T15:12:36.334Z,17.57
2023-05-19T15:15:05.533Z,17.36
2023-05-19T15:17:33.740Z,16.74
2023-05-19T15:20:02.474Z,16.87
2023-05-19T15:22:33.290Z,17.06
2023-05-19T15:25:01.518Z,17.13
2023-05-19T15:27:30.141Z,17.42
2023-05-19T15:29:58.764Z,17.30
2023-05-19T15:32:27.330Z,17.27
2023-05-19T15:34:55.964Z,18.34
2023-05-19T15:37:24.339Z,19.25
2023-05-19T15:39:52.396Z,20.38
2023-05-19T15:42:20.437Z,21.18
2023-05-19T15:44:48.767Z,21.52
2023-05-19T15:47:17.740Z,22.36
2023-05-19T15:49:46.057Z,23.21
2023-05-19T15:52:14.227Z,23.85
2023-05-19T15:54:42.605Z,24.34
2023-05-19T15:57:11.977Z,24.56
2023-05-19T15:59:39.960Z,25.11
2023-05-19T16:02:08.752Z,25.35
2023-05-19T16:04:38.000Z,25.44
2023-05-19T16:07:06.589Z,25.90
2023-05-19T16:09:34.614Z,25.88
2023-05-19T16:12:02.624Z,26.10
2023-05-19T16:14:42.415Z,26.19
2023-05-19T16:17:14.137Z,26.64
2023-05-19T16:19:42.563Z,26.40
2023-05-19T16:22:10.932Z,26.44
2023-05-19T16:24:38.831Z,25.86
2023-05-19T16:27:07.996Z,24.81
2023-05-19T16:29:36.361Z,25.04
2023-05-19T16:32:05.319Z,25.82
2023-05-19T16:34:33.287Z,26.42
2023-05-19T16:37:01.187Z,26.62
2023-05-19T16:39:32.359Z,26.11
2023-05-19T16:42:00.810Z,26.73
2023-05-19T16:44:29.437Z,27.36
2023-05-19T16:46:57.900Z,27.88
2023-05-19T16:49:26.214Z,28.45
2023-05-19T16:51:54.621Z,28.97
2023-05-19T16:54:23.719Z,29.21
2023-05-19T16:56:53.033Z,29.99
2023-05-19T16:59:22.727Z,29.98
2023-05-19T17:01:51.234Z,30.40
2023-05-19T17:04:21.252Z,30.75
2023-05-19T17:06:49.324Z,31.24
2023-05-19T17:09:17.530Z,31.42
2023-05-19T17:11:45.984Z,31.79
2023-05-19T17:14:14.129Z,32.31
2023-05-19T17:16:42.256Z,32.53
2023-05-19T17:19:11.558Z,33.08
2023-05-19T17:21:40.439Z,33.24
2023-05-19T17:24:08.822Z,33.50
2023-05-19T17:26:36.962Z,33.88
2023-05-19T17:29:06.083Z,34.19
2023-05-19T17:31:34.646Z,34.48
2023-05-19T17:34:02.714Z,34.94
2023-05-19T17:36:31.514Z,35.04
2023-05-19T17:38:59.637Z,35.27
2023-05-19T17:41:31.571Z,35.46
2023-05-19T17:43:59.895Z,35.69
2023-05-19T17:46:30.385Z,36.14
2023-05-19T17:48:59.524Z,36.22
2023-05-19T17:51:28.776Z,36.51
2023-05-19T17:53:57.516Z,36.85
2023-05-19T17:56:30.208Z,36.97
2023-05-19T17:59:00.745Z,37.30
2023-05-19T18:01:29.062Z,37.67
2023-05-19T18:03:57.668Z,37.77
2023-05-19T18:06:27.511Z,37.93
2023-05-19T18:09:00.120Z,38.29
2023-05-19T18:11:30.271Z,38.32
2023-05-19T18:13:58.908Z,38.39
2023-05-19T18:16:27.693Z,38.74
2023-05-19T18:18:55.967Z,38.67
2023-05-19T18:21:24.743Z,38.97
2023-05-19T18:23:53.019Z,39.29
2023-05-19T18:26:21.660Z,39.31
2023-05-19T18:28:50.133Z,39.41
2023-05-19T18:31:20.266Z,39.74
2023-05-19T18:33:49.986Z,39.70
2023-05-19T18:36:20.270Z,39.63
2023-05-19T18:38:48.896Z,39.65
2023-05-19T18:41:17.138Z,40.25
2023-05-19T18:43:45.724Z,40.05
2023-05-19T18:46:13.981Z,40.31
2023-05-19T18:48:42.715Z,40.37
2023-05-19T18:51:11.415Z,40.42
2023-05-19T18:54:14.362Z,40.90
2023-05-19T18:58:58.825Z,40.81
2023-05-19T19:12:13.239Z,41.37
2023-05-19T19:14:42.829Z,41.46
2023-05-19T19:17:14.713Z,42.02
2023-05-19T19:19:53.306Z,42.07
2023-05-19T19:22:21.816Z,42.16
2023-05-19T19:24:50.377Z,42.43
2023-05-19T19:27:26.715Z,42.66
2023-05-19T19:29:55.258Z,43.05
2023-05-19T19:32:23.757Z,43.09
2023-05-19T19:34:53.624Z,43.24
2023-05-19T19:37:21.883Z,43.34
2023-05-19T19:39:50.408Z,43.51
2023-05-19T19:42:19.201Z,43.54
2023-05-19T19:44:49.757Z,44.11
2023-05-19T19:47:18.421Z,43.93
2023-05-19T19:49:46.822Z,44.43
2023-05-19T19:52:17.897Z,44.34
2023-05-19T19:54:46.567Z,44.50
2023-05-19T19:57:17.457Z,44.60
2023-05-19T19:59:45.660Z,44.79
2023-05-19T20:02:14.496Z,44.73
2023-05-19T20:04:42.984Z,44.64
2023-05-19T20:07:11.359Z,44.83
2023-05-19T20:09:40.943Z,44.79
2023-05-19T20:12:09.498Z,45.15
2023-05-19T20:14:37.290Z,45.15
2023-05-19T20:17:05.781Z,45.37
2023-05-19T20:19:33.995Z,45.44
2023-05-19T20:22:02.375Z,45.26
2023-05-19T20:24:30.298Z,45.41
2023-05-19T20:26:58.397Z,45.57
2023-05-19T20:29:26.215Z,45.45
2023-05-19T20:31:56.623Z,45.53
2023-05-19T20:34:41.734Z,45.76
2023-05-19T20:37:10.008Z,45.71
2023-05-19T20:39:38.449Z,45.86
2023-05-19T20:42:08.456Z,45.84
2023-05-19T20:44:36.441Z,45.95
2023-05-19T20:47:08.319Z,46.21
2023-05-19T20:49:36.739Z,46.15
2023-05-19T20:52:05.682Z,45.93
2023-05-19T20:54:34.066Z,46.25
2023-05-19T20:57:06.783Z,46.20
2023-05-19T20:59:36.652Z,46.07
2023-05-19T21:02:08.344Z,46.06
2023-05-19T21:04:36.828Z,45.82
2023-05-19T21:07:05.176Z,45.79
2023-05-19T21:09:33.529Z,45.46
2023-05-19T21:12:03.464Z,45.37
2023-05-19T21:14:31.740Z,45.39
2023-05-19T21:16:59.886Z,45.34
2023-05-19T21:19:28.049Z,45.28
2023-05-19T21:21:57.281Z,45.21
2023-05-19T21:24:25.672Z,45.05
2023-05-19T21:26:53.689Z,45.02
2023-05-19T21:29:22.185Z,45.09
2023-05-19T21:31:52.385Z,44.99
2023-05-19T21:34:20.604Z,45.09
2023-05-19T21:36:49.973Z,44.89
2023-05-19T21:39:18.237Z,45.00
2023-05-19T21:41:46.682Z,45.00
2023-05-19T21:44:14.914Z,45.00
2023-05-19T21:46:42.887Z,44.52
2023-05-19T21:49:11.158Z,44.89
2023-05-19T21:51:43.988Z,44.70
2023-05-19T21:54:11.918Z,44.74
2023-05-19T21:56:40.053Z,44.72
2023-05-19T21:59:08.081Z,44.82
2023-05-19T22:01:35.962Z,44.65
2023-05-19T22:04:04.356Z,44.65
2023-05-19T22:06:32.822Z,44.87
2023-05-19T22:09:02.529Z,44.94
2023-05-19T22:11:30.342Z,44.99
2023-05-19T22:13:58.372Z,45.00
2023-05-19T22:16:26.768Z,45.08
2023-05-19T22:18:55.436Z,45.03
2023-05-19T22:21:23.385Z,45.21
2023-05-19T22:23:52.681Z,45.33
2023-05-19T22:26:21.844Z,45.22
2023-05-19T22:28:50.851Z,45.40
2023-05-19T22:31:18.838Z,45.58
2023-05-19T22:33:46.915Z,45.15
2023-05-19T22:36:17.189Z,45.43
2023-05-19T22:38:45.405Z,45.55
2023-05-19T22:41:16.316Z,45.60
2023-05-19T22:43:44.709Z,45.73
2023-05-19T22:46:13.189Z,45.66
2023-05-19T22:48:41.444Z,45.63
2023-05-19T22:51:09.380Z,45.84
2023-05-19T22:53:37.774Z,45.67
2023-05-19T22:56:05.767Z,45.95
2023-05-19T22:58:33.411Z,45.73
2023-05-19T23:01:01.362Z,45.74
2023-05-19T23:03:29.397Z,45.56
2023-05-19T23:05:57.401Z,45.61
2023-05-19T23:08:25.255Z,45.55
2023-05-19T23:10:53.200Z,45.37
2023-05-19T23:13:21.042Z,45.48
2023-05-19T23:15:49.282Z,45.50
2023-05-19T23:18:17.119Z,45.39
2023-05-19T23:20:45.098Z,45.33
2023-05-19T23:23:13.064Z,45.27
2023-05-19T23:25:41.032Z,45.22
2023-05-19T23:28:10.592Z,45.04
2023-05-19T23:30:38.640Z,45.13
2023-05-19T23:33:06.697Z,45.12
2023-05-19T23:35:35.284Z,44.96
2023-05-19T23:38:03.455Z,44.96
2023-05-19T23:40:32.039Z,44.95
2023-05-19T23:42:59.906Z,44.89
2023-05-19T23:45:27.879Z,45.05
2023-05-19T23:47:56.322Z,44.92
2023-05-19T23:50:24.766Z,44.97
2023-05-19T23:52:52.956Z,44.92
2023-05-19T23:55:21.375Z,44.82
2023-05-19T23:57:49.271Z,44.76
